sensor_id;sensor_type;location;lat;lon;timestamp;P1;durP1;ratioP1;P2;durP2;ratioP2
70832;SDS011;71099;59.528;17.886;2024-02-14T00:00:35;9.52;;;5.25;;
70832;SDS011;71099;59.528;17.886;2024-02-14T00:03:00;10.23;;;5.22;;
70832;SDS011;71099;59.528;17.886;2024-02-14T00:05:26;7.93;;;5.10;;
70832;SDS011;71099;59.528;17.886;2024-02-14T00:07:51;11.13;;;5.85;;
70832;SDS011;71099;59.528;17.886;2024-02-14T00:10:17;9.25;;;4.55;;
70832;SDS011;71099;59.528;17.886;2024-02-14T00:12:42;7.07;;;4.30;;
70832;SDS011;71099;59.528;17.886;2024-02-14T00:15:08;10.63;;;5.38;;
70832;SDS011;71099;59.528;17.886;2024-02-14T00:17:34;10.68;;;4.15;;
70832;SDS011;71099;59.528;17.886;2024-02-14T00:20:03;8.88;;;5.38;;
70832;SDS011;71099;59.528;17.886;2024-02-14T00:22:29;9.05;;;6.05;;
70832;SDS011;71099;59.528;17.886;2024-02-14T00:24:55;11.70;;;5.70;;
70832;SDS011;71099;59.528;17.886;2024-02-14T00:27:20;7.93;;;4.95;;
70832;SDS011;71099;59.528;17.886;2024-02-14T00:29:46;9.20;;;5.38;;
70832;SDS011;71099;59.528;17.886;2024-02-14T00:32:14;10.40;;;6.13;;
70832;SDS011;71099;59.528;17.886;2024-02-14T00:34:40;9.98;;;6.60;;
70832;SDS011;71099;59.528;17.886;2024-02-14T00:37:06;8.40;;;6.05;;
70832;SDS011;71099;59.528;17.886;2024-02-14T00:39:31;11.55;;;6.38;;
70832;SDS011;71099;59.528;17.886;2024-02-14T00:41:56;10.48;;;5.43;;
70832;SDS011;71099;59.528;17.886;2024-02-14T00:44:22;11.60;;;5.53;;
70832;SDS011;71099;59.528;17.886;2024-02-14T00:46:47;15.02;;;6.50;;
70832;SDS011;71099;59.528;17.886;2024-02-14T00:49:15;11.90;;;5.53;;
70832;SDS011;71099;59.528;17.886;2024-02-14T00:51:41;13.02;;;5.85;;
70832;SDS011;71099;59.528;17.886;2024-02-14T00:54:06;10.65;;;5.22;;
70832;SDS011;71099;59.528;17.886;2024-02-14T00:56:33;11.38;;;6.43;;
70832;SDS011;71099;59.528;17.886;2024-02-14T00:58:58;10.52;;;6.03;;
70832;SDS011;71099;59.528;17.886;2024-02-14T01:01:24;14.45;;;6.53;;
70832;SDS011;71099;59.528;17.886;2024-02-14T01:03:50;14.82;;;7.05;;
70832;SDS011;71099;59.528;17.886;2024-02-14T01:06:16;11.20;;;6.90;;
70832;SDS011;71099;59.528;17.886;2024-02-14T01:08:43;16.65;;;6.88;;
70832;SDS011;71099;59.528;17.886;2024-02-14T01:11:09;14.73;;;6.07;;
70832;SDS011;71099;59.528;17.886;2024-02-14T01:13:35;19.92;;;7.30;;
70832;SDS011;71099;59.528;17.886;2024-02-14T01:16:00;14.65;;;5.38;;
70832;SDS011;71099;59.528;17.886;2024-02-14T01:18:25;13.80;;;6.75;;
70832;SDS011;71099;59.528;17.886;2024-02-14T01:20:51;13.55;;;4.97;;
70832;SDS011;71099;59.528;17.886;2024-02-14T01:23:16;13.73;;;6.80;;
70832;SDS011;71099;59.528;17.886;2024-02-14T01:25:42;13.32;;;5.93;;
70832;SDS011;71099;59.528;17.886;2024-02-14T01:28:08;9.88;;;5.63;;
70832;SDS011;71099;59.528;17.886;2024-02-14T01:30:34;10.45;;;5.15;;
70832;SDS011;71099;59.528;17.886;2024-02-14T01:33:01;11.73;;;5.43;;
70832;SDS011;71099;59.528;17.886;2024-02-14T01:35:28;8.27;;;5.00;;
70832;SDS011;71099;59.528;17.886;2024-02-14T01:37:54;7.88;;;4.53;;
70832;SDS011;71099;59.528;17.886;2024-02-14T01:40:20;10.13;;;4.53;;
70832;SDS011;71099;59.528;17.886;2024-02-14T01:42:45;9.60;;;4.95;;
70832;SDS011;71099;59.528;17.886;2024-02-14T01:45:11;10.98;;;5.13;;
70832;SDS011;71099;59.528;17.886;2024-02-14T01:47:37;13.50;;;5.13;;
70832;SDS011;71099;59.528;17.886;2024-02-14T01:50:05;14.10;;;6.43;;
70832;SDS011;71099;59.528;17.886;2024-02-14T01:52:33;9.82;;;4.88;;
70832;SDS011;71099;59.528;17.886;2024-02-14T01:55:00;13.68;;;6.28;;
70832;SDS011;71099;59.528;17.886;2024-02-14T01:57:28;12.30;;;5.93;;
70832;SDS011;71099;59.528;17.886;2024-02-14T01:59:54;9.52;;;5.13;;
70832;SDS011;71099;59.528;17.886;2024-02-14T02:02:22;10.27;;;4.80;;
70832;SDS011;71099;59.528;17.886;2024-02-14T02:04:51;11.38;;;5.40;;
70832;SDS011;71099;59.528;17.886;2024-02-14T02:07:16;10.35;;;5.10;;
70832;SDS011;71099;59.528;17.886;2024-02-14T02:09:44;10.15;;;5.53;;
70832;SDS011;71099;59.528;17.886;2024-02-14T02:12:09;9.75;;;4.88;;
70832;SDS011;71099;59.528;17.886;2024-02-14T02:14:34;13.38;;;6.57;;
70832;SDS011;71099;59.528;17.886;2024-02-14T02:17:00;8.50;;;4.82;;
70832;SDS011;71099;59.528;17.886;2024-02-14T02:19:25;9.05;;;6.18;;
70832;SDS011;71099;59.528;17.886;2024-02-14T02:21:51;11.70;;;5.63;;
70832;SDS011;71099;59.528;17.886;2024-02-14T02:24:17;12.00;;;5.30;;
70832;SDS011;71099;59.528;17.886;2024-02-14T02:26:43;11.45;;;4.68;;
70832;SDS011;71099;59.528;17.886;2024-02-14T02:29:09;10.18;;;4.90;;
70832;SDS011;71099;59.528;17.886;2024-02-14T02:31:34;11.15;;;5.95;;
70832;SDS011;71099;59.528;17.886;2024-02-14T02:34:00;7.63;;;4.65;;
70832;SDS011;71099;59.528;17.886;2024-02-14T02:36:26;11.82;;;6.70;;
70832;SDS011;71099;59.528;17.886;2024-02-14T02:38:54;10.90;;;5.80;;
70832;SDS011;71099;59.528;17.886;2024-02-14T02:41:20;12.38;;;5.30;;
70832;SDS011;71099;59.528;17.886;2024-02-14T02:43:47;9.88;;;5.53;;
70832;SDS011;71099;59.528;17.886;2024-02-14T02:46:14;13.02;;;7.07;;
70832;SDS011;71099;59.528;17.886;2024-02-14T02:48:40;10.32;;;5.60;;
70832;SDS011;71099;59.528;17.886;2024-02-14T02:51:05;8.32;;;5.30;;
70832;SDS011;71099;59.528;17.886;2024-02-14T02:53:31;13.10;;;7.10;;
70832;SDS011;71099;59.528;17.886;2024-02-14T02:55:57;13.63;;;6.47;;
70832;SDS011;71099;59.528;17.886;2024-02-14T02:58:24;9.52;;;5.40;;
70832;SDS011;71099;59.528;17.886;2024-02-14T03:00:51;9.95;;;5.40;;
70832;SDS011;71099;59.528;17.886;2024-02-14T03:03:19;11.85;;;5.57;;
70832;SDS011;71099;59.528;17.886;2024-02-14T03:05:45;11.18;;;5.18;;
70832;SDS011;71099;59.528;17.886;2024-02-14T03:08:10;9.70;;;5.57;;
70832;SDS011;71099;59.528;17.886;2024-02-14T03:10:40;9.20;;;5.43;;
70832;SDS011;71099;59.528;17.886;2024-02-14T03:13:06;8.52;;;5.72;;
70832;SDS011;71099;59.528;17.886;2024-02-14T03:15:37;8.88;;;5.78;;
70832;SDS011;71099;59.528;17.886;2024-02-14T03:18:02;11.25;;;5.35;;
70832;SDS011;71099;59.528;17.886;2024-02-14T03:20:32;8.48;;;5.75;;
70832;SDS011;71099;59.528;17.886;2024-02-14T03:22:58;7.45;;;4.72;;
70832;SDS011;71099;59.528;17.886;2024-02-14T03:25:24;7.93;;;4.20;;
70832;SDS011;71099;59.528;17.886;2024-02-14T03:27:49;12.30;;;6.32;;
70832;SDS011;71099;59.528;17.886;2024-02-14T03:30:17;9.55;;;4.93;;
70832;SDS011;71099;59.528;17.886;2024-02-14T03:32:44;8.52;;;5.03;;
70832;SDS011;71099;59.528;17.886;2024-02-14T03:35:10;9.73;;;5.40;;
70832;SDS011;71099;59.528;17.886;2024-02-14T03:37:36;8.57;;;5.45;;
70832;SDS011;71099;59.528;17.886;2024-02-14T03:40:04;10.52;;;6.35;;
70832;SDS011;71099;59.528;17.886;2024-02-14T03:42:30;10.20;;;6.20;;
70832;SDS011;71099;59.528;17.886;2024-02-14T03:44:56;9.52;;;6.03;;
70832;SDS011;71099;59.528;17.886;2024-02-14T03:47:27;11.00;;;5.72;;
70832;SDS011;71099;59.528;17.886;2024-02-14T03:49:54;9.60;;;5.68;;
70832;SDS011;71099;59.528;17.886;2024-02-14T03:52:20;8.27;;;5.32;;
70832;SDS011;71099;59.528;17.886;2024-02-14T03:54:47;10.10;;;5.65;;
70832;SDS011;71099;59.528;17.886;2024-02-14T03:57:12;7.63;;;5.25;;
70832;SDS011;71099;59.528;17.886;2024-02-14T03:59:38;9.60;;;5.13;;
70832;SDS011;71099;59.528;17.886;2024-02-14T04:02:04;8.75;;;5.35;;
70832;SDS011;71099;59.528;17.886;2024-02-14T04:04:32;8.45;;;5.65;;
70832;SDS011;71099;59.528;17.886;2024-02-14T04:06:58;7.40;;;5.05;;
70832;SDS011;71099;59.528;17.886;2024-02-14T04:09:26;8.77;;;5.07;;
70832;SDS011;71099;59.528;17.886;2024-02-14T04:11:51;10.55;;;5.55;;
70832;SDS011;71099;59.528;17.886;2024-02-14T04:14:17;11.02;;;5.90;;
70832;SDS011;71099;59.528;17.886;2024-02-14T04:16:42;7.65;;;4.63;;
70832;SDS011;71099;59.528;17.886;2024-02-14T04:19:08;9.38;;;5.45;;
70832;SDS011;71099;59.528;17.886;2024-02-14T04:21:35;9.40;;;5.57;;
70832;SDS011;71099;59.528;17.886;2024-02-14T04:24:02;10.80;;;5.60;;
70832;SDS011;71099;59.528;17.886;2024-02-14T04:26:28;10.70;;;6.18;;
70832;SDS011;71099;59.528;17.886;2024-02-14T04:28:54;8.57;;;5.95;;
70832;SDS011;71099;59.528;17.886;2024-02-14T04:31:19;9.88;;;6.13;;
70832;SDS011;71099;59.528;17.886;2024-02-14T04:33:45;9.52;;;5.00;;
70832;SDS011;71099;59.528;17.886;2024-02-14T04:36:16;10.30;;;4.85;;
70832;SDS011;71099;59.528;17.886;2024-02-14T04:38:42;11.30;;;6.13;;
70832;SDS011;71099;59.528;17.886;2024-02-14T04:41:08;8.52;;;5.13;;
70832;SDS011;71099;59.528;17.886;2024-02-14T04:43:35;8.00;;;5.65;;
70832;SDS011;71099;59.528;17.886;2024-02-14T04:46:01;9.68;;;5.85;;
70832;SDS011;71099;59.528;17.886;2024-02-14T04:48:26;10.50;;;5.30;;
70832;SDS011;71099;59.528;17.886;2024-02-14T04:50:52;10.93;;;6.05;;
70832;SDS011;71099;59.528;17.886;2024-02-14T04:53:18;9.15;;;5.38;;
70832;SDS011;71099;59.528;17.886;2024-02-14T04:55:44;10.98;;;6.03;;
70832;SDS011;71099;59.528;17.886;2024-02-14T04:58:10;12.50;;;5.43;;
70832;SDS011;71099;59.528;17.886;2024-02-14T05:00:35;9.48;;;5.50;;
70832;SDS011;71099;59.528;17.886;2024-02-14T05:03:01;11.52;;;6.68;;
70832;SDS011;71099;59.528;17.886;2024-02-14T05:05:26;9.90;;;6.45;;
70832;SDS011;71099;59.528;17.886;2024-02-14T05:07:53;10.43;;;5.93;;
70832;SDS011;71099;59.528;17.886;2024-02-14T05:10:18;9.77;;;5.90;;
70832;SDS011;71099;59.528;17.886;2024-02-14T05:12:44;9.38;;;5.65;;
70832;SDS011;71099;59.528;17.886;2024-02-14T05:15:09;12.50;;;7.15;;
70832;SDS011;71099;59.528;17.886;2024-02-14T05:17:37;11.70;;;6.65;;
70832;SDS011;71099;59.528;17.886;2024-02-14T05:20:03;11.95;;;7.28;;
70832;SDS011;71099;59.528;17.886;2024-02-14T05:22:34;13.07;;;8.50;;
70832;SDS011;71099;59.528;17.886;2024-02-14T05:25:04;12.23;;;6.82;;
70832;SDS011;71099;59.528;17.886;2024-02-14T05:27:30;12.55;;;6.35;;
70832;SDS011;71099;59.528;17.886;2024-02-14T05:29:56;11.38;;;7.07;;
70832;SDS011;71099;59.528;17.886;2024-02-14T05:32:22;10.68;;;7.00;;
70832;SDS011;71099;59.528;17.886;2024-02-14T05:34:48;13.43;;;6.70;;
70832;SDS011;71099;59.528;17.886;2024-02-14T05:37:14;13.20;;;7.32;;
70832;SDS011;71099;59.528;17.886;2024-02-14T05:39:39;12.35;;;6.57;;
70832;SDS011;71099;59.528;17.886;2024-02-14T05:42:05;9.70;;;6.00;;
70832;SDS011;71099;59.528;17.886;2024-02-14T05:44:30;12.05;;;6.78;;
70832;SDS011;71099;59.528;17.886;2024-02-14T05:46:56;15.48;;;7.18;;
70832;SDS011;71099;59.528;17.886;2024-02-14T05:49:22;13.88;;;6.90;;
70832;SDS011;71099;59.528;17.886;2024-02-14T05:51:47;13.02;;;7.22;;
70832;SDS011;71099;59.528;17.886;2024-02-14T05:54:13;10.98;;;6.45;;
70832;SDS011;71099;59.528;17.886;2024-02-14T05:56:38;12.43;;;6.82;;
70832;SDS011;71099;59.528;17.886;2024-02-14T05:59:03;13.82;;;7.90;;
70832;SDS011;71099;59.528;17.886;2024-02-14T06:01:29;11.18;;;7.20;;
70832;SDS011;71099;59.528;17.886;2024-02-14T06:03:55;11.38;;;6.90;;
70832;SDS011;71099;59.528;17.886;2024-02-14T06:06:20;14.07;;;7.25;;
70832;SDS011;71099;59.528;17.886;2024-02-14T06:08:46;13.80;;;6.47;;
70832;SDS011;71099;59.528;17.886;2024-02-14T06:11:12;15.43;;;7.35;;
70832;SDS011;71099;59.528;17.886;2024-02-14T06:13:39;15.48;;;7.95;;
70832;SDS011;71099;59.528;17.886;2024-02-14T06:16:05;13.65;;;8.73;;
70832;SDS011;71099;59.528;17.886;2024-02-14T06:18:30;12.70;;;7.20;;
70832;SDS011;71099;59.528;17.886;2024-02-14T06:20:56;15.10;;;8.55;;
70832;SDS011;71099;59.528;17.886;2024-02-14T06:23:21;13.98;;;7.30;;
70832;SDS011;71099;59.528;17.886;2024-02-14T06:25:47;16.27;;;8.73;;
70832;SDS011;71099;59.528;17.886;2024-02-14T06:28:12;13.45;;;8.00;;
70832;SDS011;71099;59.528;17.886;2024-02-14T06:30:37;15.15;;;7.93;;
70832;SDS011;71099;59.528;17.886;2024-02-14T06:33:03;14.48;;;8.73;;
70832;SDS011;71099;59.528;17.886;2024-02-14T06:35:29;14.10;;;7.55;;
70832;SDS011;71099;59.528;17.886;2024-02-14T06:37:54;13.35;;;7.57;;
70832;SDS011;71099;59.528;17.886;2024-02-14T06:40:20;14.35;;;8.52;;
70832;SDS011;71099;59.528;17.886;2024-02-14T06:42:46;14.70;;;9.55;;
70832;SDS011;71099;59.528;17.886;2024-02-14T06:45:13;15.77;;;8.32;;
70832;SDS011;71099;59.528;17.886;2024-02-14T06:47:38;15.23;;;9.38;;
70832;SDS011;71099;59.528;17.886;2024-02-14T06:50:04;15.65;;;9.32;;
70832;SDS011;71099;59.528;17.886;2024-02-14T06:52:30;17.60;;;10.00;;
70832;SDS011;71099;59.528;17.886;2024-02-14T06:54:55;16.15;;;8.52;;
70832;SDS011;71099;59.528;17.886;2024-02-14T06:57:20;19.00;;;10.25;;
70832;SDS011;71099;59.528;17.886;2024-02-14T06:59:46;16.48;;;9.20;;
70832;SDS011;71099;59.528;17.886;2024-02-14T07:02:11;18.88;;;9.45;;
70832;SDS011;71099;59.528;17.886;2024-02-14T07:04:37;21.30;;;11.40;;
70832;SDS011;71099;59.528;17.886;2024-02-14T07:07:02;23.15;;;11.63;;
70832;SDS011;71099;59.528;17.886;2024-02-14T07:09:28;17.77;;;9.55;;
70832;SDS011;71099;59.528;17.886;2024-02-14T07:11:54;17.40;;;9.82;;
70832;SDS011;71099;59.528;17.886;2024-02-14T07:14:21;19.17;;;11.05;;
70832;SDS011;71099;59.528;17.886;2024-02-14T07:16:47;19.92;;;10.82;;
70832;SDS011;71099;59.528;17.886;2024-02-14T07:19:12;18.63;;;10.10;;
70832;SDS011;71099;59.528;17.886;2024-02-14T07:21:38;18.50;;;10.40;;
70832;SDS011;71099;59.528;17.886;2024-02-14T07:24:04;23.45;;;11.38;;
70832;SDS011;71099;59.528;17.886;2024-02-14T07:26:30;22.38;;;10.88;;
70832;SDS011;71099;59.528;17.886;2024-02-14T07:28:55;20.95;;;11.23;;
70832;SDS011;71099;59.528;17.886;2024-02-14T07:31:21;21.15;;;10.95;;
70832;SDS011;71099;59.528;17.886;2024-02-14T07:33:46;20.73;;;11.70;;
70832;SDS011;71099;59.528;17.886;2024-02-14T07:36:13;24.65;;;12.32;;
70832;SDS011;71099;59.528;17.886;2024-02-14T07:38:39;21.45;;;10.73;;
70832;SDS011;71099;59.528;17.886;2024-02-14T07:41:04;22.83;;;11.50;;
70832;SDS011;71099;59.528;17.886;2024-02-14T07:43:30;20.80;;;10.90;;
70832;SDS011;71099;59.528;17.886;2024-02-14T07:45:55;22.17;;;11.38;;
70832;SDS011;71099;59.528;17.886;2024-02-14T07:48:21;23.70;;;12.05;;
70832;SDS011;71099;59.528;17.886;2024-02-14T07:50:47;23.00;;;11.75;;
70832;SDS011;71099;59.528;17.886;2024-02-14T07:53:13;24.88;;;12.65;;
70832;SDS011;71099;59.528;17.886;2024-02-14T07:55:38;19.00;;;11.57;;
70832;SDS011;71099;59.528;17.886;2024-02-14T07:58:05;25.27;;;12.30;;
70832;SDS011;71099;59.528;17.886;2024-02-14T08:00:30;23.45;;;12.55;;
70832;SDS011;71099;59.528;17.886;2024-02-14T08:02:56;21.92;;;12.27;;
70832;SDS011;71099;59.528;17.886;2024-02-14T08:05:21;22.30;;;11.00;;
70832;SDS011;71099;59.528;17.886;2024-02-14T08:07:47;24.45;;;11.75;;
70832;SDS011;71099;59.528;17.886;2024-02-14T08:10:12;24.90;;;13.73;;
70832;SDS011;71099;59.528;17.886;2024-02-14T08:12:38;24.17;;;12.68;;
70832;SDS011;71099;59.528;17.886;2024-02-14T08:15:04;17.70;;;10.10;;
70832;SDS011;71099;59.528;17.886;2024-02-14T08:17:31;21.80;;;12.95;;
70832;SDS011;71099;59.528;17.886;2024-02-14T08:19:57;22.23;;;11.82;;
70832;SDS011;71099;59.528;17.886;2024-02-14T08:22:22;26.58;;;12.50;;
70832;SDS011;71099;59.528;17.886;2024-02-14T08:24:48;22.60;;;11.13;;
70832;SDS011;71099;59.528;17.886;2024-02-14T08:27:13;25.60;;;11.60;;
70832;SDS011;71099;59.528;17.886;2024-02-14T08:29:39;22.30;;;11.52;;
70832;SDS011;71099;59.528;17.886;2024-02-14T08:32:04;27.02;;;13.52;;
70832;SDS011;71099;59.528;17.886;2024-02-14T08:34:30;32.83;;;13.05;;
70832;SDS011;71099;59.528;17.886;2024-02-14T08:36:56;23.45;;;12.20;;
70832;SDS011;71099;59.528;17.886;2024-02-14T08:39:21;25.55;;;12.18;;
70832;SDS011;71099;59.528;17.886;2024-02-14T08:41:46;26.00;;;12.35;;
70832;SDS011;71099;59.528;17.886;2024-02-14T08:44:12;23.15;;;13.57;;
70832;SDS011;71099;59.528;17.886;2024-02-14T08:46:38;27.35;;;14.88;;
70832;SDS011;71099;59.528;17.886;2024-02-14T08:49:04;30.48;;;15.05;;
70832;SDS011;71099;59.528;17.886;2024-02-14T08:51:37;24.58;;;10.77;;
70832;SDS011;71099;59.528;17.886;2024-02-14T08:54:06;32.22;;;13.60;;
70832;SDS011;71099;59.528;17.886;2024-02-14T08:56:32;27.42;;;13.18;;
70832;SDS011;71099;59.528;17.886;2024-02-14T08:59:01;26.42;;;12.75;;
70832;SDS011;71099;59.528;17.886;2024-02-14T09:01:30;27.95;;;12.35;;
70832;SDS011;71099;59.528;17.886;2024-02-14T09:03:56;28.45;;;12.35;;
70832;SDS011;71099;59.528;17.886;2024-02-14T09:06:23;23.48;;;13.40;;
70832;SDS011;71099;59.528;17.886;2024-02-14T09:08:49;29.90;;;14.43;;
70832;SDS011;71099;59.528;17.886;2024-02-14T09:11:21;25.73;;;12.70;;
70832;SDS011;71099;59.528;17.886;2024-02-14T09:13:48;28.20;;;13.80;;
70832;SDS011;71099;59.528;17.886;2024-02-14T09:16:16;30.60;;;12.52;;
70832;SDS011;71099;59.528;17.886;2024-02-14T09:18:41;29.15;;;13.90;;
70832;SDS011;71099;59.528;17.886;2024-02-14T09:21:09;26.60;;;13.02;;
70832;SDS011;71099;59.528;17.886;2024-02-14T09:23:35;32.80;;;14.27;;
70832;SDS011;71099;59.528;17.886;2024-02-14T09:26:04;31.85;;;14.43;;
70832;SDS011;71099;59.528;17.886;2024-02-14T09:28:29;30.92;;;15.93;;
70832;SDS011;71099;59.528;17.886;2024-02-14T09:30:54;29.02;;;13.98;;
70832;SDS011;71099;59.528;17.886;2024-02-14T09:33:20;32.97;;;14.48;;
70832;SDS011;71099;59.528;17.886;2024-02-14T09:35:45;35.03;;;12.93;;
70832;SDS011;71099;59.528;17.886;2024-02-14T09:38:13;30.95;;;14.15;;
70832;SDS011;71099;59.528;17.886;2024-02-14T09:40:41;28.90;;;13.90;;
70832;SDS011;71099;59.528;17.886;2024-02-14T09:43:31;32.33;;;13.07;;
70832;SDS011;71099;59.528;17.886;2024-02-14T09:45:57;30.48;;;13.13;;
70832;SDS011;71099;59.528;17.886;2024-02-14T09:48:23;29.23;;;13.70;;
70832;SDS011;71099;59.528;17.886;2024-02-14T09:50:48;29.15;;;13.80;;
70832;SDS011;71099;59.528;17.886;2024-02-14T09:53:14;29.60;;;12.88;;
70832;SDS011;71099;59.528;17.886;2024-02-14T09:55:41;28.63;;;12.63;;
70832;SDS011;71099;59.528;17.886;2024-02-14T09:58:07;30.60;;;15.07;;
70832;SDS011;71099;59.528;17.886;2024-02-14T10:00:34;19.23;;;9.75;;
70832;SDS011;71099;59.528;17.886;2024-02-14T10:02:59;19.90;;;9.63;;
70832;SDS011;71099;59.528;17.886;2024-02-14T10:05:25;22.65;;;10.63;;
70832;SDS011;71099;59.528;17.886;2024-02-14T10:07:50;27.77;;;13.18;;
70832;SDS011;71099;59.528;17.886;2024-02-14T10:10:16;27.10;;;12.13;;
70832;SDS011;71099;59.528;17.886;2024-02-14T10:12:42;22.92;;;11.18;;
70832;SDS011;71099;59.528;17.886;2024-02-14T10:15:08;20.33;;;10.27;;
70832;SDS011;71099;59.528;17.886;2024-02-14T10:17:34;22.98;;;10.52;;
70832;SDS011;71099;59.528;17.886;2024-02-14T10:20:00;21.75;;;10.63;;
70832;SDS011;71099;59.528;17.886;2024-02-14T10:22:36;20.58;;;9.20;;
70832;SDS011;71099;59.528;17.886;2024-02-14T10:25:03;20.13;;;8.68;;
70832;SDS011;71099;59.528;17.886;2024-02-14T10:27:32;24.25;;;9.32;;
70832;SDS011;71099;59.528;17.886;2024-02-14T10:29:57;25.65;;;12.10;;
70832;SDS011;71099;59.528;17.886;2024-02-14T10:32:24;20.73;;;9.20;;
70832;SDS011;71099;59.528;17.886;2024-02-14T10:34:50;24.48;;;9.95;;
70832;SDS011;71099;59.528;17.886;2024-02-14T10:37:16;19.58;;;11.25;;
70832;SDS011;71099;59.528;17.886;2024-02-14T10:39:43;25.55;;;11.77;;
70832;SDS011;71099;59.528;17.886;2024-02-14T10:42:12;25.65;;;10.35;;
70832;SDS011;71099;59.528;17.886;2024-02-14T10:44:37;21.58;;;11.02;;
70832;SDS011;71099;59.528;17.886;2024-02-14T10:47:03;24.42;;;10.65;;
70832;SDS011;71099;59.528;17.886;2024-02-14T10:49:33;26.63;;;10.68;;
70832;SDS011;71099;59.528;17.886;2024-02-14T10:52:04;24.27;;;10.98;;
70832;SDS011;71099;59.528;17.886;2024-02-14T10:54:32;19.67;;;8.95;;
70832;SDS011;71099;59.528;17.886;2024-02-14T10:57:00;20.33;;;10.05;;
70832;SDS011;71099;59.528;17.886;2024-02-14T10:59:32;21.58;;;10.18;;
70832;SDS011;71099;59.528;17.886;2024-02-14T11:01:59;23.23;;;9.82;;
70832;SDS011;71099;59.528;17.886;2024-02-14T11:04:25;18.90;;;9.68;;
70832;SDS011;71099;59.528;17.886;2024-02-14T11:06:53;19.42;;;9.38;;
70832;SDS011;71099;59.528;17.886;2024-02-14T11:09:21;17.17;;;9.75;;
70832;SDS011;71099;59.528;17.886;2024-02-14T11:11:47;22.33;;;8.77;;
70832;SDS011;71099;59.528;17.886;2024-02-14T11:14:15;19.33;;;10.55;;
70832;SDS011;71099;59.528;17.886;2024-02-14T11:16:46;19.48;;;9.30;;
70832;SDS011;71099;59.528;17.886;2024-02-14T11:19:12;20.17;;;9.43;;
70832;SDS011;71099;59.528;17.886;2024-02-14T11:21:42;18.60;;;9.10;;
70832;SDS011;71099;59.528;17.886;2024-02-14T11:24:09;15.38;;;8.40;;
70832;SDS011;71099;59.528;17.886;2024-02-14T11:29:20;19.58;;;8.73;;
70832;SDS011;71099;59.528;17.886;2024-02-14T11:31:46;22.20;;;9.00;;
70832;SDS011;71099;59.528;17.886;2024-02-14T11:34:13;18.85;;;8.95;;
70832;SDS011;71099;59.528;17.886;2024-02-14T11:36:42;14.90;;;8.07;;
70832;SDS011;71099;59.528;17.886;2024-02-14T11:39:09;16.83;;;8.43;;
70832;SDS011;71099;59.528;17.886;2024-02-14T11:41:37;16.67;;;7.72;;
70832;SDS011;71099;59.528;17.886;2024-02-14T11:44:06;14.18;;;8.23;;
70832;SDS011;71099;59.528;17.886;2024-02-14T11:46:32;15.48;;;7.55;;
70832;SDS011;71099;59.528;17.886;2024-02-14T11:48:59;17.35;;;7.43;;
70832;SDS011;71099;59.528;17.886;2024-02-14T11:51:26;14.80;;;8.23;;
70832;SDS011;71099;59.528;17.886;2024-02-14T11:53:53;16.23;;;8.20;;
70832;SDS011;71099;59.528;17.886;2024-02-14T11:56:20;15.75;;;9.43;;
70832;SDS011;71099;59.528;17.886;2024-02-14T11:58:47;16.75;;;8.00;;
70832;SDS011;71099;59.528;17.886;2024-02-14T12:01:15;16.67;;;8.02;;
70832;SDS011;71099;59.528;17.886;2024-02-14T12:03:43;16.88;;;7.05;;
70832;SDS011;71099;59.528;17.886;2024-02-14T12:06:09;18.80;;;10.15;;
70832;SDS011;71099;59.528;17.886;2024-02-14T12:08:35;15.63;;;7.75;;
70832;SDS011;71099;59.528;17.886;2024-02-14T12:11:01;15.43;;;7.65;;
70832;SDS011;71099;59.528;17.886;2024-02-14T12:13:27;15.93;;;6.72;;
70832;SDS011;71099;59.528;17.886;2024-02-14T12:15:57;20.02;;;8.65;;
70832;SDS011;71099;59.528;17.886;2024-02-14T12:18:22;13.52;;;7.72;;
70832;SDS011;71099;59.528;17.886;2024-02-14T12:20:48;16.70;;;7.18;;
70832;SDS011;71099;59.528;17.886;2024-02-14T12:23:16;18.95;;;8.05;;
70832;SDS011;71099;59.528;17.886;2024-02-14T12:25:46;18.20;;;7.88;;
70832;SDS011;71099;59.528;17.886;2024-02-14T12:28:15;21.33;;;8.52;;
70832;SDS011;71099;59.528;17.886;2024-02-14T12:30:51;15.52;;;7.97;;
70832;SDS011;71099;59.528;17.886;2024-02-14T12:33:26;19.60;;;8.68;;
70832;SDS011;71099;59.528;17.886;2024-02-14T12:35:53;17.17;;;7.65;;
70832;SDS011;71099;59.528;17.886;2024-02-14T12:38:21;16.10;;;8.80;;
70832;SDS011;71099;59.528;17.886;2024-02-14T12:40:48;17.05;;;8.55;;
70832;SDS011;71099;59.528;17.886;2024-02-14T12:43:14;20.92;;;9.80;;
70832;SDS011;71099;59.528;17.886;2024-02-14T12:45:41;21.10;;;9.05;;
70832;SDS011;71099;59.528;17.886;2024-02-14T12:48:08;23.58;;;10.73;;
70832;SDS011;71099;59.528;17.886;2024-02-14T12:50:34;22.08;;;10.68;;
70832;SDS011;71099;59.528;17.886;2024-02-14T12:53:02;18.35;;;9.15;;
70832;SDS011;71099;59.528;17.886;2024-02-14T12:55:28;22.17;;;10.07;;
70832;SDS011;71099;59.528;17.886;2024-02-14T12:57:56;21.33;;;11.40;;
70832;SDS011;71099;59.528;17.886;2024-02-14T13:00:22;24.42;;;10.85;;
70832;SDS011;71099;59.528;17.886;2024-02-14T13:02:48;26.40;;;12.70;;
70832;SDS011;71099;59.528;17.886;2024-02-14T13:05:14;19.90;;;9.15;;
70832;SDS011;71099;59.528;17.886;2024-02-14T13:07:40;23.55;;;10.43;;
70832;SDS011;71099;59.528;17.886;2024-02-14T13:10:07;21.15;;;10.05;;
70832;SDS011;71099;59.528;17.886;2024-02-14T13:12:37;21.50;;;10.38;;
70832;SDS011;71099;59.528;17.886;2024-02-14T13:15:03;27.38;;;11.02;;
70832;SDS011;71099;59.528;17.886;2024-02-14T13:17:29;23.00;;;9.55;;
70832;SDS011;71099;59.528;17.886;2024-02-14T13:19:55;26.60;;;11.52;;
70832;SDS011;71099;59.528;17.886;2024-02-14T13:22:20;23.88;;;11.65;;
70832;SDS011;71099;59.528;17.886;2024-02-14T13:24:46;31.70;;;11.60;;
70832;SDS011;71099;59.528;17.886;2024-02-14T13:27:11;26.75;;;10.85;;
70832;SDS011;71099;59.528;17.886;2024-02-14T13:29:38;22.15;;;10.30;;
70832;SDS011;71099;59.528;17.886;2024-02-14T13:32:04;27.30;;;11.70;;
70832;SDS011;71099;59.528;17.886;2024-02-14T13:34:32;21.05;;;9.82;;
70832;SDS011;71099;59.528;17.886;2024-02-14T13:36:58;27.35;;;10.80;;
70832;SDS011;71099;59.528;17.886;2024-02-14T13:39:24;20.05;;;10.60;;
70832;SDS011;71099;59.528;17.886;2024-02-14T13:41:49;23.63;;;9.88;;
70832;SDS011;71099;59.528;17.886;2024-02-14T13:44:15;20.27;;;10.20;;
70832;SDS011;71099;59.528;17.886;2024-02-14T13:46:43;21.20;;;10.10;;
70832;SDS011;71099;59.528;17.886;2024-02-14T13:49:15;21.17;;;8.95;;
70832;SDS011;71099;59.528;17.886;2024-02-14T13:51:46;21.48;;;10.00;;
70832;SDS011;71099;59.528;17.886;2024-02-14T13:54:12;20.13;;;9.60;;
70832;SDS011;71099;59.528;17.886;2024-02-14T13:56:38;25.75;;;10.40;;
70832;SDS011;71099;59.528;17.886;2024-02-14T13:59:03;24.20;;;9.40;;
70832;SDS011;71099;59.528;17.886;2024-02-14T14:01:29;21.83;;;9.98;;
70832;SDS011;71099;59.528;17.886;2024-02-14T14:03:54;20.98;;;8.63;;
70832;SDS011;71099;59.528;17.886;2024-02-14T14:06:21;20.75;;;9.88;;
70832;SDS011;71099;59.528;17.886;2024-02-14T14:08:49;24.35;;;9.32;;
70832;SDS011;71099;59.528;17.886;2024-02-14T14:11:17;19.20;;;9.75;;
70832;SDS011;71099;59.528;17.886;2024-02-14T14:13:42;18.00;;;9.10;;
70832;SDS011;71099;59.528;17.886;2024-02-14T14:16:08;18.38;;;8.55;;